< < Back
Terminal Aerodrome Forecast


Current Version              Previous Versions:   1  2  3  4  5  6  7  8  9  

Terminal Aerodrome Forecast

305
FTUS42 KMLB 181100
TAFMCO
TAF
KMCO 181135Z 1812/1912 08009KT P6SM VCSH BKN020
     FM181500 12012G20KT P6SM VCSH SCT015 BKN035 OVC150
     FM181800 15012KT P6SM SHRA VCTS SCT020 BKN040CB OVC060
      TEMPO 1820/1822 4SM TSRA SCT020 BKN030CB
     FM190300 17009KT P6SM VCSH BKN030 OVC050=

Latest METAR

806
SAUS70 KWBC 181300 RRK
MTRMCO
METAR KMCO 181253Z 10006KT 4SM -DZ BR BKN009 OVC017 22/21 A3008 RMK AO2
RAB10E48DZB48 SLP184 P0000 T02220206


USA.gov is the U.S. government's official web portal to all federal, state and local government web resources and services.